createdAt,value
2023-03-05T00:02:08.051Z,1
2023-03-05T00:04:07.916Z,1
2023-03-05T00:06:07.197Z,1
2023-03-05T00:08:14.518Z,1
2023-03-05T00:10:07.831Z,1
2023-03-05T00:12:14.510Z,1
2023-03-05T00:14:07.705Z,1
2023-03-05T00:16:10.971Z,1
2023-03-05T00:18:07.275Z,1
2023-03-05T00:20:07.955Z,1
2023-03-05T00:22:06.397Z,1
2023-03-05T00:24:12.999Z,1
2023-03-05T00:26:07.734Z,1
2023-03-05T00:28:07.584Z,1
2023-03-05T00:30:07.170Z,1
2023-03-05T00:32:12.386Z,1
2023-03-05T00:34:07.311Z,1
2023-03-05T00:36:11.460Z,1
2023-03-05T00:38:14.506Z,1
2023-03-05T00:40:14.434Z,1
2023-03-05T00:42:08.054Z,1
2023-03-05T00:44:10.374Z,1
2023-03-05T00:46:11.168Z,1
2023-03-05T00:48:07.172Z,1
2023-03-05T00:50:10.682Z,1
2023-03-05T00:52:08.111Z,1
2023-03-05T00:54:07.268Z,1
2023-03-05T00:56:07.174Z,1
2023-03-05T00:58:11.179Z,1
2023-03-05T01:00:11.028Z,1
2023-03-05T01:02:07.220Z,1
2023-03-05T01:04:11.589Z,1
2023-03-05T01:06:07.168Z,1
2023-03-05T01:10:08.059Z,1
2023-03-05T01:12:07.175Z,1
2023-03-05T01:16:07.457Z,1
2023-03-05T01:18:10.752Z,1
2023-03-05T01:20:07.186Z,1
2023-03-05T01:22:09.382Z,1
2023-03-05T01:24:07.791Z,1
2023-03-05T01:26:14.387Z,1
2023-03-05T01:32:07.290Z,1
2023-03-05T01:34:11.367Z,1
2023-03-05T01:36:07.840Z,1
2023-03-05T01:38:09.286Z,1
2023-03-05T01:42:07.903Z,1
2023-03-05T01:44:11.050Z,1
2023-03-05T01:46:07.316Z,1
2023-03-05T01:48:07.883Z,1
2023-03-05T01:50:07.867Z,1
2023-03-05T01:52:07.745Z,1
2023-03-05T01:54:07.889Z,1
2023-03-05T01:56:07.909Z,1
2023-03-05T01:58:07.817Z,1
2023-03-05T02:00:07.799Z,1
2023-03-05T02:02:11.139Z,1
2023-03-05T02:04:07.275Z,1
2023-03-05T02:06:08.115Z,1
2023-03-05T02:08:10.943Z,1
2023-03-05T02:10:11.191Z,1
2023-03-05T02:12:07.160Z,1
2023-03-05T02:14:09.656Z,1
2023-03-05T02:16:06.998Z,1
2023-03-05T02:18:07.911Z,1
2023-03-05T02:20:07.868Z,1
2023-03-05T02:22:07.742Z,1
2023-03-05T02:24:07.957Z,1
2023-03-05T02:26:07.219Z,1
2023-03-05T02:28:11.390Z,1
2023-03-05T02:30:07.619Z,1
2023-03-05T02:32:08.119Z,1
2023-03-05T02:36:07.262Z,1
2023-03-05T02:38:07.903Z,1
2023-03-05T02:40:11.340Z,1
2023-03-05T02:42:07.260Z,1
2023-03-05T02:44:14.253Z,1
2023-03-05T02:46:08.087Z,1
2023-03-05T02:48:07.358Z,1
2023-03-05T02:52:07.789Z,1
2023-03-05T02:54:11.278Z,1
2023-03-05T02:56:07.238Z,1
2023-03-05T02:58:07.855Z,1
2023-03-05T03:00:07.238Z,1
2023-03-05T03:02:07.228Z,1
2023-03-05T03:04:07.216Z,1
2023-03-05T03:06:08.045Z,1
2023-03-05T03:08:06.434Z,1
2023-03-05T03:10:07.295Z,1
2023-03-05T03:12:08.014Z,1
2023-03-05T03:14:07.866Z,1
2023-03-05T03:16:11.508Z,1
2023-03-05T03:18:07.880Z,1
2023-03-05T03:20:14.571Z,1
2023-03-05T03:22:11.172Z,1
2023-03-05T03:24:11.079Z,1
2023-03-05T03:26:14.485Z,1
2023-03-05T03:28:07.960Z,1
2023-03-05T03:30:07.205Z,1
2023-03-05T03:32:08.014Z,1
2023-03-05T03:34:14.238Z,1
2023-03-05T03:36:07.897Z,1
2023-03-05T03:38:14.585Z,1
2023-03-05T03:40:07.859Z,1
2023-03-05T03:42:07.197Z,1
2023-03-05T03:44:07.337Z,1
2023-03-05T03:46:07.431Z,1
2023-03-05T03:48:07.315Z,1
2023-03-05T03:50:11.266Z,1
2023-03-05T03:52:07.815Z,1
2023-03-05T03:54:07.858Z,1
2023-03-05T03:58:07.252Z,1
2023-03-05T04:00:07.094Z,1
2023-03-05T04:02:08.161Z,1
2023-03-05T04:04:11.387Z,1
2023-03-05T04:06:10.681Z,1
2023-03-05T04:08:07.350Z,1
2023-03-05T04:10:11.954Z,1
2023-03-05T04:12:11.289Z,1
2023-03-05T04:14:07.791Z,1
2023-03-05T04:16:16.532Z,1
2023-03-05T04:19:00.913Z,1
2023-03-05T04:20:58.886Z,1
2023-03-05T04:23:00.139Z,1
2023-03-05T04:24:59.696Z,1
2023-03-05T04:26:59.317Z,1
2023-03-05T04:28:59.247Z,1
2023-03-05T04:30:59.244Z,1
2023-03-05T04:32:59.173Z,1
2023-03-05T04:34:59.369Z,1
2023-03-05T04:36:59.501Z,1
2023-03-05T04:38:58.463Z,1
2023-03-05T04:40:59.419Z,1
2023-03-05T04:42:59.693Z,1
2023-03-05T04:44:56.174Z,1
2023-03-05T04:47:03.381Z,1
2023-03-05T04:48:59.322Z,1
2023-03-05T04:50:59.016Z,1
2023-03-05T04:52:59.043Z,1
2023-03-05T04:56:59.470Z,1
2023-03-05T04:58:58.745Z,1
2023-03-05T05:01:02.490Z,1
2023-03-05T05:02:59.196Z,1
2023-03-05T05:04:59.310Z,1
2023-03-05T05:07:03.183Z,1
2023-03-05T05:08:59.634Z,1
2023-03-05T05:10:59.348Z,0
2023-03-05T05:12:59.082Z,0
2023-03-05T05:14:59.834Z,0
2023-03-05T05:17:00.222Z,0
2023-03-05T05:18:59.628Z,0.1
2023-03-05T05:20:59.817Z,0.1
2023-03-05T05:23:02.749Z,0.2
2023-03-05T05:24:59.236Z,0.3
2023-03-05T05:27:03.411Z,0.5
2023-03-05T05:28:56.041Z,0.7
2023-03-05T05:31:03.316Z,1.2
2023-03-05T05:32:58.657Z,1.6
2023-03-05T05:35:02.917Z,2.3
2023-03-05T05:37:03.564Z,3.3
2023-03-05T05:38:59.201Z,4.7
2023-03-05T05:40:58.629Z,6.4
2023-03-05T05:42:58.654Z,8.6
2023-03-05T05:44:59.980Z,11.6
2023-03-05T05:47:00.566Z,14.2
2023-03-05T05:48:59.696Z,18.2
2023-03-05T05:50:59.308Z,22.2
2023-03-05T05:52:59.896Z,27.1
2023-03-05T05:54:59.533Z,33.1
2023-03-05T05:56:59.978Z,38.5
2023-03-05T05:58:59.984Z,44.7
2023-03-05T06:00:59.359Z,49.4
2023-03-05T06:02:58.648Z,57.4
2023-03-05T06:05:06.740Z,66.7
2023-03-05T06:07:06.564Z,77.5
2023-03-05T06:08:59.702Z,85.6
2023-03-05T06:11:02.951Z,90
2023-03-05T06:13:00.029Z,99.5
2023-03-05T06:15:03.624Z,109.9
2023-03-05T06:17:03.576Z,121.5
2023-03-05T06:20:58.788Z,148.4
2023-03-05T06:22:58.753Z,156
2023-03-05T06:25:03.902Z,164
2023-03-05T06:26:59.431Z,181.3
2023-03-05T06:28:59.270Z,190.6
2023-03-05T06:31:03.126Z,210.6
2023-03-05T06:33:02.923Z,221.4
2023-03-05T06:35:02.775Z,244.7
2023-03-05T06:37:02.849Z,257.2
2023-03-05T06:39:02.376Z,270.4
2023-03-05T06:40:58.632Z,298.9
2023-03-05T06:43:06.614Z,314.2
2023-03-05T06:45:03.205Z,330.3
2023-03-05T06:46:59.207Z,347.2
2023-03-05T06:48:59.041Z,383.8
2023-03-05T06:51:03.922Z,403.4
2023-03-05T06:53:06.613Z,403.4
2023-03-05T06:54:58.734Z,424.1
2023-03-05T06:56:59.592Z,445.9
2023-03-05T06:58:59.198Z,468.7
2023-03-05T07:00:59.749Z,492.7
2023-03-05T07:03:03.433Z,518
2023-03-05T07:07:06.471Z,572.5
2023-03-05T07:08:59.796Z,601.8
2023-03-05T07:11:00.061Z,632.7
2023-03-05T07:12:59.481Z,665.1
2023-03-05T07:15:03.888Z,665.1
2023-03-05T07:16:58.787Z,699.2
2023-03-05T07:19:03.446Z,735.1
2023-03-05T07:20:58.968Z,735.1
2023-03-05T07:22:59.609Z,735.1
2023-03-05T07:24:59.421Z,772.8
2023-03-05T07:27:00.055Z,772.8
2023-03-05T07:29:01.455Z,812.4
2023-03-05T07:31:06.861Z,854.1
2023-03-05T07:33:03.427Z,854.1
2023-03-05T07:34:58.704Z,854.1
2023-03-05T07:39:03.772Z,897.8
2023-03-05T07:40:58.971Z,897.8
2023-03-05T07:42:58.747Z,897.8
2023-03-05T07:44:59.492Z,897.8
2023-03-05T07:47:03.466Z,897.8
2023-03-05T07:48:59.029Z,897.8
2023-03-05T07:50:59.966Z,897.8
2023-03-05T07:53:03.510Z,854.1
2023-03-05T07:54:59.890Z,854.1
2023-03-05T07:56:59.770Z,897.8
2023-03-05T07:58:58.932Z,897.8
2023-03-05T08:00:59.326Z,897.8
2023-03-05T08:03:03.612Z,897.8
2023-03-05T08:05:04.001Z,897.8
2023-03-05T08:06:58.794Z,943.9
2023-03-05T08:08:59.381Z,943.9
2023-03-05T08:11:03.360Z,992.3
2023-03-05T08:12:59.388Z,992.3
2023-03-05T08:14:59.327Z,992.3
2023-03-05T08:17:03.197Z,992.3
2023-03-05T08:18:58.876Z,1096.6
2023-03-05T08:22:59.926Z,1152.9
2023-03-05T08:24:58.940Z,1152.9
2023-03-05T08:26:59.452Z,1212
2023-03-05T08:29:03.750Z,1212
2023-03-05T08:31:06.702Z,1274.1
2023-03-05T08:32:59.022Z,1274.1
2023-03-05T08:34:58.908Z,1274.1
2023-03-05T08:37:03.535Z,1274.1
2023-03-05T08:38:59.787Z,1274.1
2023-03-05T08:40:59.437Z,1212
2023-03-05T08:43:00.809Z,1212
2023-03-05T08:44:59.068Z,1274.1
2023-03-05T08:46:59.735Z,1274.1
2023-03-05T08:49:05.392Z,1274.1
2023-03-05T08:50:58.786Z,1274.1
2023-03-05T08:53:03.611Z,1274.1
2023-03-05T08:55:02.721Z,1274.1
2023-03-05T08:57:06.766Z,1274.1
2023-03-05T08:58:58.813Z,1339.4
2023-03-05T09:00:58.657Z,1408.1
2023-03-05T09:02:59.849Z,1480.3
2023-03-05T09:04:59.228Z,1556.2
2023-03-05T09:06:59.612Z,1636
2023-03-05T09:09:01.640Z,1636
2023-03-05T09:11:06.456Z,1556.2
2023-03-05T09:12:58.730Z,1480.3
2023-03-05T09:15:06.633Z,1408.1
2023-03-05T09:16:59.344Z,1556.2
2023-03-05T09:19:03.842Z,1636
2023-03-05T09:20:59.423Z,1719.9
2023-03-05T09:23:03.641Z,1556.2
2023-03-05T09:24:59.721Z,1556.2
2023-03-05T09:26:58.944Z,1556.2
2023-03-05T09:29:03.114Z,1556.2
2023-03-05T09:30:58.763Z,1719.9
2023-03-05T09:32:58.769Z,1808
2023-03-05T09:34:58.788Z,1998.2
2023-03-05T09:36:59.272Z,1900.7
2023-03-05T09:39:00.212Z,1719.9
2023-03-05T09:40:59.014Z,1719.9
2023-03-05T09:42:58.944Z,1900.7
2023-03-05T09:45:03.513Z,1998.2
2023-03-05T09:47:03.544Z,1998.2
2023-03-05T09:48:59.269Z,1900.7
2023-03-05T09:50:59.670Z,1900.7
2023-03-05T09:52:59.528Z,2100.6
2023-03-05T09:54:59.068Z,2208.3
2023-03-05T09:56:59.318Z,2208.3
2023-03-05T09:59:00.137Z,2208.3
2023-03-05T10:00:59.370Z,1998.2
2023-03-05T10:02:58.779Z,1998.2
2023-03-05T10:04:59.239Z,2440.6
2023-03-05T10:07:01.005Z,2208.3
2023-03-05T10:09:02.966Z,2440.6
2023-03-05T10:11:02.235Z,2697.3
2023-03-05T10:12:56.048Z,2835.6
2023-03-05T10:15:03.477Z,2697.3
2023-03-05T10:16:59.562Z,2565.7
2023-03-05T10:19:06.141Z,2440.6
2023-03-05T10:21:03.456Z,2321.6
2023-03-05T10:22:59.263Z,2440.6
2023-03-05T10:24:59.594Z,2440.6
2023-03-05T10:26:59.315Z,2440.6
2023-03-05T10:28:59.465Z,2565.7
2023-03-05T10:30:59.710Z,2565.7
2023-03-05T10:32:59.272Z,2565.7
2023-03-05T10:34:58.974Z,2565.7
2023-03-05T10:37:00.236Z,2697.3
2023-03-05T10:38:59.096Z,2697.3
2023-03-05T10:40:58.944Z,2697.3
2023-03-05T10:42:59.823Z,2835.6
2023-03-05T10:44:59.363Z,2835.6
2023-03-05T10:47:07.683Z,2981
2023-03-05T10:48:58.798Z,2981
2023-03-05T10:50:59.736Z,3133.8
2023-03-05T10:52:58.866Z,3133.8
2023-03-05T10:57:03.599Z,3133.8
2023-03-05T10:58:59.295Z,2981
2023-03-05T11:03:03.439Z,2981
2023-03-05T11:04:58.931Z,2981
2023-03-05T11:06:59.627Z,2981
2023-03-05T11:09:03.367Z,2981
2023-03-05T11:11:04.114Z,2981
2023-03-05T11:12:59.446Z,2981
2023-03-05T11:15:02.800Z,3133.8
2023-03-05T11:16:58.964Z,3133.8
2023-03-05T11:18:59.956Z,3133.8
2023-03-05T11:20:59.397Z,2981
2023-03-05T11:22:58.775Z,2981
2023-03-05T11:25:00.416Z,2981
2023-03-05T11:27:03.146Z,2981
2023-03-05T11:28:58.979Z,2835.6
2023-03-05T11:31:00.391Z,2835.6
2023-03-05T11:33:00.026Z,2835.6
2023-03-05T11:37:03.619Z,2697.3
2023-03-05T11:38:59.566Z,2697.3
2023-03-05T11:41:03.373Z,2697.3
2023-03-05T11:43:00.394Z,2697.3
2023-03-05T11:45:02.930Z,2697.3
2023-03-05T11:46:59.514Z,2697.3
2023-03-05T11:48:59.972Z,2835.6
2023-03-05T11:51:03.536Z,2835.6
2023-03-05T11:52:58.977Z,2981
2023-03-05T11:54:58.799Z,2981
2023-03-05T11:57:03.705Z,2981
2023-03-05T11:58:58.981Z,2835.6
2023-03-05T12:01:06.896Z,2835.6
2023-03-05T12:02:58.972Z,2835.6
2023-03-05T12:04:59.492Z,2835.6
2023-03-05T12:06:59.876Z,2835.6
2023-03-05T12:08:56.748Z,2835.6
2023-03-05T12:12:59.147Z,2835.6
2023-03-05T12:15:00.095Z,2697.3
2023-03-05T12:17:05.834Z,2697.3
2023-03-05T12:18:58.816Z,2565.7
2023-03-05T12:20:59.016Z,2440.6
2023-03-05T12:22:59.638Z,2208.3
2023-03-05T12:25:01.180Z,2100.6
2023-03-05T12:27:03.632Z,1998.2
2023-03-05T12:29:03.519Z,1998.2
2023-03-05T12:32:58.944Z,2208.3
2023-03-05T12:36:59.609Z,2208.3
2023-03-05T12:38:58.810Z,2208.3
2023-03-05T12:40:59.622Z,2100.6
2023-03-05T12:42:59.605Z,2100.6
2023-03-05T12:45:06.934Z,2100.6
2023-03-05T12:46:59.859Z,2100.6
2023-03-05T12:49:03.470Z,2100.6
2023-03-05T12:51:02.916Z,2100.6
2023-03-05T12:53:02.387Z,2100.6
2023-03-05T12:54:59.441Z,2100.6
2023-03-05T12:56:59.216Z,2100.6
2023-03-05T12:59:06.997Z,2100.6
2023-03-05T13:01:00.356Z,2208.3
2023-03-05T13:05:02.640Z,2208.3
2023-03-05T13:07:06.722Z,1998.2
2023-03-05T13:09:06.752Z,1900.7
2023-03-05T13:10:59.074Z,1808
2023-03-05T13:12:58.823Z,1719.9
2023-03-05T13:16:58.908Z,1719.9
2023-03-05T13:19:00.028Z,1719.9
2023-03-05T13:20:59.461Z,1808
2023-03-05T13:22:58.821Z,1808
2023-03-05T13:25:02.288Z,1900.7
2023-03-05T13:26:59.413Z,1900.7
2023-03-05T13:28:59.535Z,1900.7
2023-03-05T13:31:02.516Z,1900.7
2023-03-05T13:32:59.569Z,1808
2023-03-05T13:34:58.801Z,1808
2023-03-05T13:36:58.838Z,1808
2023-03-05T13:39:03.652Z,1719.9
2023-03-05T13:40:59.677Z,1719.9
2023-03-05T13:43:03.491Z,1636
2023-03-05T13:44:59.037Z,1636
2023-03-05T13:47:04.501Z,1636
2023-03-05T13:49:03.265Z,1556.2
2023-03-05T13:51:02.901Z,1556.2
2023-03-05T13:53:03.496Z,1556.2
2023-03-05T13:54:59.240Z,1556.2
2023-03-05T13:57:00.001Z,1556.2
2023-03-05T13:59:03.553Z,1480.3
2023-03-05T14:00:59.470Z,1480.3
2023-03-05T14:03:06.503Z,1408.1
2023-03-05T14:05:03.665Z,1339.4
2023-03-05T14:06:58.948Z,1274.1
2023-03-05T14:08:59.540Z,1274.1
2023-03-05T14:10:59.077Z,1274.1
2023-03-05T14:13:03.400Z,1212
2023-03-05T14:15:03.406Z,1212
2023-03-05T14:16:58.905Z,1212
2023-03-05T14:18:59.499Z,1152.9
2023-03-05T14:21:01.387Z,1096.6
2023-03-05T14:22:58.938Z,1152.9
2023-03-05T14:24:58.810Z,1212
2023-03-05T14:26:59.945Z,1212
2023-03-05T14:29:04.336Z,1152.9
2023-03-05T14:30:58.838Z,1096.6
2023-03-05T14:32:59.036Z,1043.1
2023-03-05T14:34:59.729Z,992.3
2023-03-05T14:37:03.464Z,943.9
2023-03-05T14:38:58.864Z,854.1
2023-03-05T14:40:59.454Z,735.1
2023-03-05T14:42:59.734Z,699.2
2023-03-05T14:45:05.473Z,665.1
2023-03-05T14:46:58.810Z,665.1
2023-03-05T14:48:58.928Z,632.7
2023-03-05T14:51:00.136Z,601.8
2023-03-05T14:53:02.950Z,632.7
2023-03-05T14:54:59.104Z,632.7
2023-03-05T14:56:58.856Z,665.1
2023-03-05T14:59:01.668Z,665.1
2023-03-05T15:01:05.590Z,665.1
2023-03-05T15:03:01.077Z,699.2
2023-03-05T15:05:02.612Z,699.2
2023-03-05T15:06:59.312Z,699.2
2023-03-05T15:09:04.301Z,735.1
2023-03-05T15:10:58.830Z,699.2
2023-03-05T15:13:07.958Z,699.2
2023-03-05T15:14:59.023Z,699.2
2023-03-05T15:16:59.327Z,699.2
2023-03-05T15:19:03.271Z,699.2
2023-03-05T15:20:58.905Z,699.2
2023-03-05T15:23:00.266Z,665.1
2023-03-05T15:25:03.675Z,665.1
2023-03-05T15:28:59.311Z,699.2
2023-03-05T15:31:00.105Z,665.1
2023-03-05T15:32:58.917Z,632.7
2023-03-05T15:35:07.828Z,632.7
2023-03-05T15:36:59.353Z,601.8
2023-03-05T15:38:59.028Z,544.6
2023-03-05T15:41:01.718Z,518
2023-03-05T15:43:01.590Z,492.7
2023-03-05T15:44:59.224Z,492.7
2023-03-05T15:46:59.634Z,492.7
2023-03-05T15:49:01.074Z,468.7
2023-03-05T15:50:59.326Z,445.9
2023-03-05T15:52:59.309Z,424.1
2023-03-05T15:55:01.481Z,403.4
2023-03-05T15:57:02.720Z,383.8
2023-03-05T15:59:03.430Z,347.2
2023-03-05T16:00:58.850Z,314.2
2023-03-05T16:03:00.189Z,298.9
2023-03-05T16:05:04.801Z,284.3
2023-03-05T16:07:03.407Z,270.4
2023-03-05T16:08:59.538Z,257.2
2023-03-05T16:11:07.880Z,244.7
2023-03-05T16:15:00.132Z,210.6
2023-03-05T16:17:03.614Z,190.6
2023-03-05T16:19:02.005Z,172.4
2023-03-05T16:21:00.141Z,156
2023-03-05T16:22:59.258Z,148.4
2023-03-05T16:25:07.848Z,134.3
2023-03-05T16:27:02.505Z,127.7
2023-03-05T16:29:06.610Z,121.5
2023-03-05T16:30:59.390Z,109.9
2023-03-05T16:33:03.476Z,94.6
2023-03-05T16:34:58.882Z,85.6
2023-03-05T16:36:59.269Z,77.5
2023-03-05T16:39:03.676Z,70.1
2023-03-05T16:41:08.455Z,63.4
2023-03-05T16:43:00.613Z,57.4
2023-03-05T16:44:59.884Z,51.9
2023-03-05T16:46:59.371Z,44.7
2023-03-05T16:48:59.060Z,38.5
2023-03-05T16:50:59.232Z,33.1
2023-03-05T16:52:59.080Z,27.1
2023-03-05T16:55:03.478Z,22.2
2023-03-05T16:59:02.680Z,17.3
2023-03-05T17:00:59.347Z,14.9
2023-03-05T17:02:58.873Z,12.8
2023-03-05T17:05:00.999Z,11
2023-03-05T17:07:06.957Z,9
2023-03-05T17:08:58.876Z,7.4
2023-03-05T17:10:58.867Z,5.8
2023-03-05T17:13:00.111Z,4.5
2023-03-05T17:14:59.897Z,3.5
2023-03-05T17:17:03.552Z,2.6
2023-03-05T17:18:58.889Z,1.8
2023-03-05T17:20:59.040Z,1.3
2023-03-05T17:23:01.989Z,1
2023-03-05T17:25:03.819Z,0.7
2023-03-05T17:26:58.811Z,0.4
2023-03-05T17:29:00.262Z,0.3
2023-03-05T17:31:00.147Z,0.2
2023-03-05T17:33:00.686Z,0.1
2023-03-05T17:34:59.642Z,0.1
2023-03-05T17:36:58.937Z,0.1
2023-03-05T17:39:06.538Z,0
2023-03-05T17:41:03.611Z,0
2023-03-05T17:42:58.919Z,0
2023-03-05T17:44:59.543Z,0
2023-03-05T17:46:59.152Z,1
2023-03-05T17:50:59.574Z,1
2023-03-05T17:52:58.934Z,1
2023-03-05T17:54:59.086Z,1
2023-03-05T17:57:00.174Z,1
2023-03-05T17:59:03.648Z,1
2023-03-05T18:00:59.112Z,1
2023-03-05T18:03:02.768Z,1
2023-03-05T18:05:00.755Z,1
2023-03-05T18:06:59.166Z,1
2023-03-05T18:09:02.798Z,1
2023-03-05T18:10:59.063Z,1
2023-03-05T18:13:00.352Z,1
2023-03-05T18:14:59.371Z,1
2023-03-05T18:16:56.712Z,1
2023-03-05T18:18:58.988Z,1
2023-03-05T18:20:58.929Z,1
2023-03-05T18:22:59.160Z,1
2023-03-05T18:25:02.725Z,1
2023-03-05T18:27:06.842Z,1
2023-03-05T18:28:59.448Z,1
2023-03-05T18:31:01.767Z,1
2023-03-05T18:33:01.976Z,1
2023-03-05T18:34:58.947Z,1
2023-03-05T18:36:58.940Z,1
2023-03-05T18:39:00.251Z,1
2023-03-05T18:40:59.435Z,1
2023-03-05T18:42:56.857Z,1
2023-03-05T18:44:59.020Z,1
2023-03-05T18:48:59.186Z,1
2023-03-05T18:51:03.518Z,1
2023-03-05T18:52:56.115Z,1
2023-03-05T18:54:59.610Z,1
2023-03-05T18:57:03.669Z,1
2023-03-05T18:58:59.149Z,1
2023-03-05T19:00:59.480Z,1
2023-03-05T19:02:58.952Z,1
2023-03-05T19:05:02.022Z,1
2023-03-05T19:07:10.618Z,1
2023-03-05T19:08:59.085Z,1
2023-03-05T19:11:06.388Z,1
2023-03-05T19:12:58.964Z,1
2023-03-05T19:15:07.089Z,1
2023-03-05T19:17:06.689Z,1
2023-03-05T19:18:56.215Z,1
2023-03-05T19:20:59.548Z,1
2023-03-05T19:23:08.318Z,1
2023-03-05T19:25:01.619Z,1
2023-03-05T19:27:04.925Z,1
2023-03-05T19:29:01.498Z,1
2023-03-05T19:31:00.522Z,1
2023-03-05T19:32:59.149Z,1
2023-03-05T19:34:59.773Z,1
2023-03-05T19:38:59.563Z,1
2023-03-05T19:40:58.871Z,1
2023-03-05T19:42:58.947Z,1
2023-03-05T19:45:02.845Z,1
2023-03-05T19:47:01.793Z,1
2023-03-05T19:49:03.397Z,1
2023-03-05T19:52:58.956Z,1
2023-03-05T19:54:58.998Z,1
2023-03-05T19:56:58.981Z,1
2023-03-05T19:58:58.999Z,1
2023-03-05T20:01:01.666Z,1
2023-03-05T20:03:06.884Z,1
2023-03-05T20:05:06.729Z,1
2023-03-05T20:07:02.418Z,1
2023-03-05T20:08:58.999Z,1
2023-03-05T20:10:59.007Z,1
2023-03-05T20:12:59.415Z,1
2023-03-05T20:15:03.565Z,1
2023-03-05T20:18:59.562Z,1
2023-03-05T20:20:59.041Z,1
2023-03-05T20:22:58.948Z,1
2023-03-05T20:25:06.971Z,1
2023-03-05T20:28:59.652Z,1
2023-03-05T20:31:09.438Z,1
2023-03-05T20:32:58.906Z,1
2023-03-05T20:34:58.982Z,1
2023-03-05T20:37:00.702Z,1
2023-03-05T20:39:02.572Z,1
2023-03-05T20:40:58.997Z,1
2023-03-05T20:43:01.352Z,1
2023-03-05T20:44:58.906Z,1
2023-03-05T20:46:59.081Z,1
2023-03-05T20:50:59.074Z,1
2023-03-05T20:53:03.556Z,1
2023-03-05T20:54:59.040Z,1
2023-03-05T20:56:59.241Z,1
2023-03-05T20:59:00.517Z,1
2023-03-05T21:01:04.284Z,1
2023-03-05T21:02:59.228Z,1
2023-03-05T21:05:06.853Z,1
2023-03-05T21:06:56.847Z,1
2023-03-05T21:09:01.458Z,1
2023-03-05T21:11:01.503Z,1
2023-03-05T21:13:05.406Z,1
2023-03-05T21:15:06.486Z,1
2023-03-05T21:18:59.155Z,1
2023-03-05T21:21:03.196Z,1
2023-03-05T21:22:59.627Z,1
2023-03-05T21:25:03.618Z,1
2023-03-05T21:27:03.656Z,1
2023-03-05T21:29:01.572Z,1
2023-03-05T21:31:05.717Z,1
2023-03-05T21:33:00.106Z,1
2023-03-05T21:35:00.354Z,1
2023-03-05T21:36:59.005Z,1
2023-03-05T21:39:02.046Z,1
2023-03-05T21:41:03.343Z,1
2023-03-05T21:43:00.355Z,1
2023-03-05T21:45:04.031Z,1
2023-03-05T21:46:59.279Z,1
2023-03-05T21:48:59.373Z,1
2023-03-05T21:51:03.764Z,1
2023-03-05T21:53:03.690Z,1
2023-03-05T21:54:59.050Z,1
2023-03-05T21:56:59.002Z,1
2023-03-05T21:59:02.819Z,1
2023-03-05T22:00:59.149Z,1
2023-03-05T22:04:59.250Z,1
2023-03-05T22:07:06.502Z,1
2023-03-05T22:08:59.048Z,1
2023-03-05T22:11:08.467Z,1
2023-03-05T22:12:59.561Z,1
2023-03-05T22:14:59.790Z,1
2023-03-05T22:16:59.620Z,1
2023-03-05T22:19:03.408Z,1
2023-03-05T22:20:59.577Z,1
2023-03-05T22:23:02.843Z,1
2023-03-05T22:25:00.322Z,1
2023-03-05T22:27:01.611Z,1
2023-03-05T22:29:01.227Z,1
2023-03-05T22:31:01.012Z,1
2023-03-05T22:33:10.005Z,1
2023-03-05T22:35:05.429Z,1
2023-03-05T22:36:59.703Z,1
2023-03-05T22:38:58.941Z,1
2023-03-05T22:40:59.247Z,1
2023-03-05T22:42:59.713Z,1
2023-03-05T22:44:58.917Z,1
2023-03-05T22:47:05.161Z,1
2023-03-05T22:48:59.055Z,1
2023-03-05T22:51:03.513Z,1
2023-03-05T22:52:59.006Z,1
2023-03-05T22:55:08.497Z,1
2023-03-05T22:58:59.617Z,1
2023-03-05T23:00:58.904Z,1
2023-03-05T23:02:59.024Z,1
2023-03-05T23:04:59.075Z,1
2023-03-05T23:06:59.858Z,1
2023-03-05T23:08:59.771Z,1
2023-03-05T23:11:02.151Z,1
2023-03-05T23:13:07.538Z,1
2023-03-05T23:14:59.206Z,1
2023-03-05T23:16:59.338Z,1
2023-03-05T23:18:56.397Z,1
2023-03-05T23:20:59.282Z,1
2023-03-05T23:22:59.479Z,1
2023-03-05T23:25:03.585Z,1
2023-03-05T23:26:59.094Z,1
2023-03-05T23:29:03.733Z,1
2023-03-05T23:31:03.519Z,1
2023-03-05T23:33:01.859Z,1
2023-03-05T23:35:00.755Z,1
2023-03-05T23:37:01.045Z,1
2023-03-05T23:39:10.548Z,1
2023-03-05T23:41:00.814Z,1
2023-03-05T23:43:05.247Z,1
2023-03-05T23:45:06.490Z,1
2023-03-05T23:47:03.417Z,1
2023-03-05T23:48:59.872Z,1
2023-03-05T23:50:58.955Z,1
2023-03-05T23:53:01.415Z,1
2023-03-05T23:54:58.970Z,1
2023-03-05T23:57:00.978Z,1
2023-03-05T23:58:58.961Z,1
